»·PEaware :: SWA666 KRNO-KSLC

SWA666 :: KRNO-KSLC

FLIGHT INFORMATION

Flight Status: Arrived
Operator:
Southwest Airlines
More flights by this operator :: More flights under this callsign
Pilot: Nehseem A. (13724)
Aircraft: BOEING 737-800
(B738)
More flights by this aircraft type
Origin: KRNO Reno/Tahoe Intl
United States
Destination: KSLC Salt Lake City Intl
United States
More flights between these airports :: More routes between these airports
Route: PVINE3 PYGOW LLC J32 BAM J154 BVL WAATS5
File this flight plan on PilotEdge
Remarks:
Altitude:
(Current/Filed)
33,000ft
Speed:
(Current/Filed)
447kts
Departed: 11-May-18 06:24 PM
Arrived: 11-May-18 07:29 PM
Distance/Time
Traveled:
365nm/1:05
Distance/Time
To Go:
Arrived

Flight Plot

Page will automatically refresh every two minutes.

Flight plan parsing failed; only flown route is shown


Map Options




Map Legend


Flown Route
Filed Route
Departure Airport
Arrival Airport
Navaid (VOR, NDB)
Fix

Horizontal Profiles

Position Reports

Time Latitude Longitude Heading Altitude Ground
Speed
11-May-18 17:51 39.507834 -119.774398 180 4423ft 0kts
11-May-18 17:52 39.507834 -119.774398 180 4423ft 0kts
11-May-18 17:53 39.507834 -119.774398 180 4423ft 0kts
11-May-18 17:54 39.507834 -119.774398 180 4423ft 0kts
11-May-18 17:55 39.507834 -119.774398 180 4423ft 0kts
11-May-18 17:56 39.507834 -119.774398 180 4423ft 0kts
11-May-18 17:57 39.507834 -119.774398 180 4423ft 0kts
11-May-18 17:58 39.507834 -119.774398 180 4423ft 0kts
11-May-18 17:59 39.507834 -119.774398 180 4423ft 0kts
11-May-18 18:00 39.507834 -119.774398 180 4423ft 0kts
11-May-18 18:01 39.507834 -119.774398 180 4423ft 0kts
11-May-18 18:02 39.507834 -119.774398 180 4423ft 0kts
11-May-18 18:03 39.507834 -119.774398 180 4423ft 0kts
11-May-18 18:04 39.507834 -119.774398 180 4423ft 0kts
11-May-18 18:05 39.507834 -119.774398 180 4423ft 0kts
11-May-18 18:06 39.507834 -119.774398 180 4423ft 0kts
11-May-18 18:07 39.507834 -119.774398 180 4423ft 0kts
11-May-18 18:08 39.507834 -119.774398 180 4423ft 0kts
11-May-18 18:09 39.507834 -119.774398 180 4423ft 0kts
11-May-18 18:10 39.507834 -119.774398 180 4423ft 0kts
11-May-18 18:11 39.507834 -119.774398 180 4423ft 0kts
11-May-18 18:12 39.508203 -119.774392 180 4423ft 2kts
11-May-18 18:13 39.508530 -119.774386 180 4423ft 0kts
11-May-18 18:14 39.508530 -119.774386 180 4423ft 0kts
11-May-18 18:15 39.508529 -119.774386 180 4423ft 0kts
11-May-18 18:16 39.508528 -119.774387 180 4423ft 0kts
11-May-18 18:17 39.508394 -119.774183 94 4423ft 5kts
11-May-18 18:18 39.508396 -119.772589 90 4423ft 0kts
11-May-18 18:19 39.507870 -119.771587 180 4423ft 10kts
11-May-18 18:20 39.502585 -119.771605 178 4423ft 25kts
11-May-18 18:21 39.494460 -119.771634 176 4423ft 31kts
11-May-18 18:22 39.485370 -119.771653 178 4423ft 32kts
11-May-18 18:23 39.483804 -119.770511 91 4423ft 4kts
11-May-18 18:24 39.486929 -119.769267 0 4423ft 60kts
11-May-18 18:25 39.524876 -119.768924 2 5306ft 187kts
11-May-18 18:26 39.577645 -119.767461 4 7989ft 208kts
11-May-18 18:27 39.633316 -119.728755 36 10149ft 249kts
11-May-18 18:28 39.692279 -119.669017 35 12532ft 281kts
11-May-18 18:29 39.759442 -119.599120 41 14809ft 323kts
11-May-18 18:30 39.822106 -119.511724 43 17665ft 336kts
11-May-18 18:31 39.887074 -119.420095 43 20113ft 352kts
11-May-18 18:32 39.955053 -119.323908 43 22303ft 369kts
11-May-18 18:33 40.017139 -119.214087 66 24403ft 391kts
11-May-18 18:34 40.044124 -119.071168 74 25945ft 415kts
11-May-18 18:35 40.069149 -118.921773 74 27657ft 426kts
11-May-18 18:36 40.094246 -118.769380 74 29332ft 434kts
11-May-18 18:37 40.119468 -118.613561 74 30971ft 438kts
11-May-18 18:38 40.156088 -118.462430 65 32451ft 437kts
11-May-18 18:39 40.198303 -118.310394 66 32973ft 458kts
11-May-18 18:40 40.242359 -118.148877 66 32980ft 478kts
11-May-18 18:41 40.287118 -117.985892 66 32987ft 475kts
11-May-18 18:42 40.330667 -117.825256 69 32992ft 462kts
11-May-18 18:43 40.373319 -117.666003 69 32992ft 464kts
11-May-18 18:44 40.415930 -117.505983 69 32992ft 465kts
11-May-18 18:45 40.458561 -117.344874 69 32988ft 468kts
11-May-18 18:46 40.501328 -117.183301 70 32984ft 469kts
11-May-18 18:47 40.543553 -117.020876 70 32981ft 471kts
11-May-18 18:48 40.574724 -116.850342 84 32981ft 487kts
11-May-18 18:49 40.584746 -116.672659 86 32978ft 490kts
11-May-18 18:50 40.594802 -116.495635 86 32972ft 484kts
11-May-18 18:51 40.605570 -116.318172 86 32966ft 487kts
11-May-18 18:52 40.616039 -116.139988 86 32955ft 490kts
11-May-18 18:53 40.626017 -115.960931 87 32950ft 484kts
11-May-18 18:54 40.635432 -115.787179 87 32941ft 475kts
11-May-18 18:55 40.644603 -115.613366 87 32939ft 477kts
11-May-18 18:56 40.653582 -115.438279 88 32939ft 480kts
11-May-18 18:57 40.662601 -115.262635 88 32938ft 483kts
11-May-18 18:58 40.671047 -115.085681 88 32937ft 486kts
11-May-18 18:59 40.679358 -114.906964 88 32936ft 490kts
11-May-18 19:00 40.687158 -114.727459 89 32933ft 492kts
11-May-18 19:01 40.693477 -114.575971 90 32932ft 495kts
11-May-18 19:02 40.701241 -114.393773 90 32930ft 498kts
11-May-18 19:03 40.708875 -114.211295 90 32937ft 500kts
11-May-18 19:04 40.716361 -114.027700 90 32940ft 501kts
11-May-18 19:05 40.722953 -113.846129 91 31150ft 489kts
11-May-18 19:06 40.726771 -113.668976 95 28653ft 479kts
11-May-18 19:07 40.725665 -113.497109 95 26142ft 451kts
11-May-18 19:08 40.724864 -113.335490 95 23650ft 438kts
11-May-18 19:09 40.724799 -113.177757 94 21248ft 424kts
11-May-18 19:10 40.723916 -113.024764 94 19037ft 402kts
11-May-18 19:11 40.722797 -112.882827 94 17191ft 370kts
11-May-18 19:12 40.721898 -112.752272 94 17020ft 366kts
11-May-18 19:13 40.720549 -112.619501 94 15498ft 351kts
11-May-18 19:14 40.718973 -112.492909 93 14067ft 336kts
11-May-18 19:15 40.716844 -112.372555 93 14012ft 333kts
11-May-18 19:16 40.713784 -112.250211 93 12685ft 332kts
11-May-18 19:17 40.719279 -112.132685 68 12042ft 303kts
11-May-18 19:18 40.784327 -112.076290 358 11367ft 311kts
11-May-18 19:19 40.871101 -112.082730 355 9873ft 304kts
11-May-18 19:20 40.950863 -112.089510 355 9013ft 260kts
11-May-18 19:21 41.014093 -112.094988 355 8863ft 197kts
11-May-18 19:22 41.067185 -112.088253 38 8677ft 196kts
11-May-18 19:23 41.066125 -112.022218 132 8142ft 218kts
11-May-18 19:24 41.013053 -111.995706 180 8046ft 205kts
11-May-18 19:25 40.953273 -111.992982 178 7211ft 220kts
11-May-18 19:26 40.895068 -111.986923 173 6029ft 196kts
11-May-18 19:27 40.845327 -111.980200 176 4827ft 166kts
11-May-18 19:28 40.801832 -111.976187 179 4237ft 148kts
11-May-18 19:29 40.785417 -111.974969 207 4235ft 8kts
11-May-18 19:30 40.784026 -111.975888 207 4235ft 3kts

Navigation Log

Ident Type
Flight plan parsing failed, navigation log unavailable